createdAt,value
2017-10-26T00:00:33.088Z,14.60
2017-10-26T00:02:59.405Z,14.60
2017-10-26T00:05:27.340Z,14.70
2017-10-26T00:07:53.635Z,14.60
2017-10-26T00:10:26.669Z,14.60
2017-10-26T00:12:55.571Z,14.50
2017-10-26T00:15:21.957Z,14.70
2017-10-26T00:17:49.022Z,14.70
2017-10-26T00:20:15.333Z,14.70
2017-10-26T00:22:41.645Z,14.70
2017-10-26T00:25:08.720Z,14.60
2017-10-26T00:27:35.861Z,14.60
2017-10-26T00:30:02.269Z,14.60
2017-10-26T00:32:28.581Z,14.60
2017-10-26T00:34:54.917Z,14.70
2017-10-26T00:37:21.242Z,14.70
2017-10-26T00:39:47.558Z,14.90
2017-10-26T00:42:13.861Z,14.70
2017-10-26T00:44:40.165Z,14.80
2017-10-26T00:47:06.480Z,14.70
2017-10-26T00:49:32.796Z,14.70
2017-10-26T00:51:59.233Z,14.70
2017-10-26T00:54:26.256Z,14.70
2017-10-26T00:56:52.555Z,14.70
2017-10-26T00:59:18.834Z,14.80
2017-10-26T01:01:45.132Z,14.90
2017-10-26T01:04:11.655Z,14.80
2017-10-26T01:06:37.968Z,14.90
2017-10-26T01:09:05.002Z,15.00
2017-10-26T01:11:31.301Z,15.00
2017-10-26T01:13:58.707Z,15.00
2017-10-26T01:16:25.020Z,14.90
2017-10-26T01:18:51.336Z,15.00
2017-10-26T01:21:17.626Z,15.00
2017-10-26T01:23:44.678Z,15.00
2017-10-26T01:26:11.327Z,15.00
2017-10-26T01:28:39.367Z,15.10
2017-10-26T01:31:07.517Z,14.80
2017-10-26T01:33:33.784Z,14.80
2017-10-26T01:36:00.068Z,14.80
2017-10-26T01:38:26.389Z,15.00
2017-10-26T01:40:53.430Z,15.00
2017-10-26T01:43:19.717Z,14.90
2017-10-26T01:45:46.007Z,14.90
2017-10-26T01:48:12.722Z,14.80
2017-10-26T01:50:39.066Z,15.00
2017-10-26T01:53:06.115Z,14.70
2017-10-26T01:55:32.417Z,14.70
2017-10-26T01:57:58.729Z,14.80
2017-10-26T02:00:25.024Z,14.80
2017-10-26T02:02:51.330Z,15.10
2017-10-26T02:05:18.361Z,15.10
2017-10-26T02:07:44.685Z,15.10
2017-10-26T02:10:10.995Z,15.10
2017-10-26T02:12:39.481Z,15.10
2017-10-26T02:15:05.770Z,15.00
2017-10-26T02:17:32.789Z,14.90
2017-10-26T02:19:59.065Z,14.90
2017-10-26T02:22:26.129Z,15.00
2017-10-26T02:24:53.205Z,15.00
2017-10-26T02:27:19.502Z,14.90
2017-10-26T02:29:58.177Z,14.80
2017-10-26T02:32:24.488Z,14.90
2017-10-26T02:34:50.777Z,14.90
2017-10-26T02:37:17.821Z,14.90
2017-10-26T02:39:44.141Z,14.90
2017-10-26T02:42:10.408Z,14.90
2017-10-26T02:44:36.736Z,15.00
2017-10-26T02:47:09.913Z,15.00
2017-10-26T02:49:36.234Z,15.00
2017-10-26T02:52:02.342Z,14.90
2017-10-26T02:54:28.462Z,14.90
2017-10-26T02:56:55.322Z,14.90
2017-10-26T02:59:22.227Z,15.00
2017-10-26T03:01:48.345Z,15.00
2017-10-26T03:04:14.458Z,15.10
2017-10-26T03:06:41.573Z,15.20
2017-10-26T03:09:07.700Z,15.10
2017-10-26T03:11:34.559Z,15.10
2017-10-26T03:14:01.420Z,15.00
2017-10-26T03:16:28.260Z,14.90
2017-10-26T03:18:55.046Z,14.80
2017-10-26T03:21:21.899Z,14.80
2017-10-26T03:23:48.025Z,14.90
2017-10-26T03:26:14.134Z,14.90
2017-10-26T03:28:40.229Z,15.10
2017-10-26T03:31:06.329Z,14.90
2017-10-26T03:33:34.637Z,14.80
2017-10-26T03:36:00.780Z,14.70
2017-10-26T03:38:26.901Z,14.70
2017-10-26T03:40:52.996Z,15.00
2017-10-26T03:43:19.661Z,14.70
2017-10-26T03:45:45.985Z,14.70
2017-10-26T03:48:13.538Z,14.80
2017-10-26T03:50:39.873Z,14.80
2017-10-26T03:53:06.906Z,15.00
2017-10-26T03:55:35.301Z,14.80
2017-10-26T03:58:01.377Z,14.90
2017-10-26T04:00:28.198Z,14.70
2017-10-26T04:02:54.326Z,14.70
2017-10-26T04:05:20.656Z,14.80
2017-10-26T04:07:46.932Z,14.90
2017-10-26T04:10:13.216Z,14.90
2017-10-26T04:12:39.516Z,14.90
2017-10-26T04:15:05.801Z,14.90
2017-10-26T04:17:32.089Z,15.00
2017-10-26T04:19:59.112Z,15.00
2017-10-26T04:22:25.407Z,15.00
2017-10-26T04:24:51.713Z,15.00
2017-10-26T04:27:18.144Z,15.00
2017-10-26T04:29:44.425Z,15.00
2017-10-26T04:32:10.811Z,14.90
2017-10-26T04:34:37.839Z,14.90
2017-10-26T04:37:04.156Z,14.90
2017-10-26T04:39:31.172Z,15.00
2017-10-26T04:41:57.457Z,14.90
2017-10-26T04:44:23.741Z,15.00
2017-10-26T04:46:50.203Z,15.00
2017-10-26T04:49:17.830Z,15.00
2017-10-26T04:51:44.920Z,15.10
2017-10-26T04:54:11.471Z,15.00
2017-10-26T04:56:37.745Z,15.40
2017-10-26T04:59:04.063Z,14.90
2017-10-26T05:01:31.121Z,14.90
2017-10-26T05:03:58.193Z,14.90
2017-10-26T05:06:24.549Z,14.90
2017-10-26T05:08:50.862Z,14.90
2017-10-26T05:11:17.152Z,14.80
2017-10-26T05:13:44.197Z,14.70
2017-10-26T05:16:10.502Z,14.70
2017-10-26T05:18:36.852Z,14.70
2017-10-26T05:21:05.683Z,14.80
2017-10-26T05:23:31.993Z,14.80
2017-10-26T05:25:58.313Z,14.90
2017-10-26T05:28:24.908Z,15.10
2017-10-26T05:30:51.249Z,15.00
2017-10-26T05:33:17.585Z,14.90
2017-10-26T05:35:43.920Z,14.90
2017-10-26T05:38:11.040Z,14.90
2017-10-26T05:40:37.433Z,14.90
2017-10-26T05:43:03.792Z,14.90
2017-10-26T05:48:01.606Z,14.80
2017-10-26T05:50:27.937Z,14.80
2017-10-26T05:52:54.252Z,14.80
2017-10-26T05:55:33.152Z,14.90
2017-10-26T05:58:09.418Z,15.00
2017-10-26T06:00:36.768Z,14.90
2017-10-26T06:03:02.864Z,14.90
2017-10-26T06:05:29.720Z,14.90
2017-10-26T06:07:55.805Z,14.90
2017-10-26T06:10:21.872Z,14.90
2017-10-26T06:13:03.261Z,14.90
2017-10-26T06:15:32.590Z,14.80
2017-10-26T06:17:58.711Z,14.70
2017-10-26T06:20:24.817Z,14.70
2017-10-26T06:22:54.610Z,14.60
2017-10-26T06:25:20.697Z,14.60
2017-10-26T06:27:46.796Z,14.60
2017-10-26T06:30:12.894Z,14.50
2017-10-26T06:32:39.875Z,14.80
2017-10-26T06:35:06.014Z,14.80
2017-10-26T06:37:32.873Z,15.00
2017-10-26T06:39:59.000Z,14.90
2017-10-26T06:42:25.129Z,14.90
2017-10-26T06:44:53.445Z,14.90
2017-10-26T06:47:19.533Z,14.80
2017-10-26T06:49:46.384Z,14.80
2017-10-26T06:52:12.650Z,14.80
2017-10-26T06:54:38.780Z,14.80
2017-10-26T06:57:05.646Z,15.00
2017-10-26T06:59:37.065Z,14.90
2017-10-26T07:02:03.208Z,14.90
2017-10-26T07:04:29.390Z,14.90
2017-10-26T07:06:55.536Z,15.00
2017-10-26T07:09:21.649Z,14.90
2017-10-26T07:11:47.748Z,14.90
2017-10-26T07:14:13.862Z,14.90
2017-10-26T07:16:39.987Z,15.10
2017-10-26T07:19:06.110Z,15.20
2017-10-26T07:21:32.280Z,15.20
2017-10-26T07:23:58.386Z,15.20
2017-10-26T07:26:24.534Z,15.30
2017-10-26T07:28:50.656Z,15.50
2017-10-26T07:31:23.147Z,15.20
2017-10-26T07:33:53.587Z,15.10
2017-10-26T07:36:19.766Z,15.40
2017-10-26T07:38:46.970Z,15.20
2017-10-26T07:41:13.156Z,15.20
2017-10-26T07:43:39.997Z,15.20
2017-10-26T07:46:06.865Z,15.30
2017-10-26T07:48:50.182Z,15.20
2017-10-26T07:51:16.313Z,15.20
2017-10-26T07:54:00.152Z,15.30
2017-10-26T07:56:26.239Z,15.50
2017-10-26T07:58:52.337Z,15.40
2017-10-26T08:01:24.597Z,15.40
2017-10-26T08:03:50.681Z,15.60
2017-10-26T08:06:16.789Z,15.70
2017-10-26T08:08:42.924Z,15.60
2017-10-26T08:11:09.038Z,15.70
2017-10-26T08:13:35.129Z,15.70
2017-10-26T08:16:01.244Z,15.50
2017-10-26T08:18:29.345Z,15.70
2017-10-26T08:20:56.179Z,15.70
2017-10-26T08:23:22.269Z,15.60
2017-10-26T08:25:48.381Z,15.60
2017-10-26T08:28:14.501Z,15.70
2017-10-26T08:30:40.584Z,15.70
2017-10-26T08:33:07.402Z,15.90
2017-10-26T08:35:36.849Z,15.90
2017-10-26T08:38:02.941Z,15.90
2017-10-26T08:40:29.021Z,16.00
2017-10-26T08:42:55.119Z,16.20
2017-10-26T08:45:21.216Z,15.90
2017-10-26T08:47:48.403Z,15.80
2017-10-26T08:50:15.245Z,15.80
2017-10-26T08:52:48.162Z,15.80
2017-10-26T08:55:14.511Z,16.00
2017-10-26T08:57:40.592Z,16.10
2017-10-26T09:00:07.414Z,16.20
2017-10-26T09:02:33.530Z,16.20
2017-10-26T09:04:59.634Z,16.20
2017-10-26T09:07:25.721Z,16.10
2017-10-26T09:09:58.609Z,16.20
2017-10-26T09:12:24.702Z,16.40
2017-10-26T09:14:51.287Z,16.30
2017-10-26T09:17:18.630Z,16.20
2017-10-26T09:19:44.788Z,16.20
2017-10-26T09:22:10.882Z,16.70
2017-10-26T09:24:43.424Z,16.40
2017-10-26T09:27:09.521Z,16.20
2017-10-26T09:29:35.709Z,16.30
2017-10-26T09:32:01.797Z,16.40
2017-10-26T09:34:28.634Z,16.50
2017-10-26T09:36:54.710Z,16.50
2017-10-26T09:39:21.591Z,16.50
2017-10-26T09:41:50.952Z,16.50
2017-10-26T09:44:17.038Z,16.50
2017-10-26T09:46:43.867Z,16.50
2017-10-26T09:49:10.056Z,16.50
2017-10-26T09:51:36.140Z,16.50
2017-10-26T09:54:02.224Z,16.60
2017-10-26T09:56:28.319Z,16.70
2017-10-26T09:58:57.613Z,16.70
2017-10-26T10:01:23.762Z,16.80
2017-10-26T10:03:50.577Z,16.90
2017-10-26T10:06:17.433Z,16.90
2017-10-26T10:08:44.294Z,17.00
2017-10-26T10:11:11.229Z,17.00
2017-10-26T10:13:37.305Z,17.00
2017-10-26T10:16:09.811Z,17.00
2017-10-26T10:18:35.889Z,17.00
2017-10-26T10:21:02.740Z,17.10
2017-10-26T10:23:29.601Z,17.00
2017-10-26T10:25:55.686Z,17.00
2017-10-26T10:28:21.803Z,16.90
2017-10-26T10:30:53.909Z,17.00
2017-10-26T10:33:20.042Z,17.00
2017-10-26T10:35:46.349Z,17.00
2017-10-26T10:38:12.513Z,17.20
2017-10-26T10:40:39.425Z,17.20
2017-10-26T10:43:06.282Z,17.20
2017-10-26T10:45:32.374Z,17.20
2017-10-26T10:48:02.308Z,17.30
2017-10-26T10:50:28.403Z,17.40
2017-10-26T10:52:54.487Z,17.30
2017-10-26T10:55:20.589Z,17.30
2017-10-26T10:57:46.696Z,17.20
2017-10-26T11:00:18.793Z,17.20
2017-10-26T11:02:44.870Z,17.40
2017-10-26T11:05:15.575Z,17.40
2017-10-26T11:07:42.461Z,17.40
2017-10-26T11:10:08.542Z,17.30
2017-10-26T11:12:35.398Z,17.30
2017-10-26T11:15:02.250Z,17.40
2017-10-26T11:17:28.341Z,17.40
2017-10-26T11:19:54.448Z,17.40
2017-10-26T11:22:25.648Z,17.40
2017-10-26T11:24:51.778Z,17.40
2017-10-26T11:27:18.648Z,17.40
2017-10-26T11:29:44.734Z,17.30
2017-10-26T11:32:11.550Z,17.30
2017-10-26T11:34:37.678Z,17.40
2017-10-26T11:37:03.840Z,17.50
2017-10-26T11:39:29.921Z,17.50
2017-10-26T11:42:02.797Z,17.60
2017-10-26T11:44:28.907Z,17.70
2017-10-26T11:46:55.083Z,17.90
2017-10-26T11:49:21.166Z,18.10
2017-10-26T11:51:47.301Z,18.30
2017-10-26T11:54:13.558Z,18.00
2017-10-26T11:56:39.687Z,18.00
2017-10-26T11:59:05.805Z,18.00
2017-10-26T12:01:35.850Z,18.00
2017-10-26T12:04:01.985Z,17.90
2017-10-26T12:06:28.148Z,17.90
2017-10-26T12:08:54.281Z,17.80
2017-10-26T12:11:21.132Z,17.90
2017-10-26T12:13:47.256Z,17.90
2017-10-26T12:16:13.497Z,18.00
2017-10-26T12:18:39.629Z,18.00
2017-10-26T12:21:10.881Z,18.10
2017-10-26T12:23:37.753Z,18.20
2017-10-26T12:26:03.878Z,18.10
2017-10-26T12:28:30.128Z,18.70
2017-10-26T12:30:56.257Z,18.40
2017-10-26T12:33:22.402Z,18.60
2017-10-26T12:35:48.558Z,18.70
2017-10-26T12:38:14.732Z,18.40
2017-10-26T12:40:42.947Z,18.60
2017-10-26T12:43:09.143Z,18.80
2017-10-26T12:45:35.285Z,18.50
2017-10-26T12:48:01.401Z,18.40
2017-10-26T12:50:28.314Z,18.40
2017-10-26T12:52:54.429Z,18.40
2017-10-26T12:55:20.581Z,18.50
2017-10-26T12:57:50.207Z,18.50
2017-10-26T13:00:16.340Z,18.50
2017-10-26T13:02:42.486Z,18.40
2017-10-26T13:05:09.388Z,18.50
2017-10-26T13:07:36.306Z,18.60
2017-10-26T13:10:03.192Z,18.70
2017-10-26T13:12:29.325Z,19.10
2017-10-26T13:14:55.972Z,18.70
2017-10-26T13:17:22.844Z,18.50
2017-10-26T13:19:49.706Z,18.60
2017-10-26T13:22:15.832Z,18.60
2017-10-26T13:24:41.949Z,18.60
2017-10-26T13:27:08.877Z,18.80
2017-10-26T13:32:06.613Z,18.70
2017-10-26T13:34:33.489Z,18.70
2017-10-26T13:37:00.345Z,18.80
2017-10-26T13:39:26.562Z,18.80
2017-10-26T13:41:52.694Z,18.80
2017-10-26T13:44:18.889Z,18.80
2017-10-26T13:46:45.784Z,18.90
2017-10-26T13:49:11.912Z,19.00
2017-10-26T13:51:38.036Z,18.90
2017-10-26T13:54:04.125Z,19.00
2017-10-26T13:56:30.247Z,19.00
2017-10-26T13:58:56.342Z,18.90
2017-10-26T14:01:24.503Z,18.90
2017-10-26T14:03:51.647Z,18.90
2017-10-26T14:06:19.332Z,18.90
2017-10-26T14:08:45.513Z,18.90
2017-10-26T14:11:12.405Z,18.80
2017-10-26T14:13:38.522Z,18.50
2017-10-26T14:16:06.644Z,18.60
2017-10-26T14:18:32.717Z,18.40
2017-10-26T14:20:59.569Z,18.20
2017-10-26T14:23:25.681Z,18.20
2017-10-26T14:25:51.781Z,18.20
2017-10-26T14:28:17.883Z,18.40
2017-10-26T14:30:44.019Z,18.70
2017-10-26T14:33:10.126Z,18.30
2017-10-26T14:35:36.224Z,18.20
2017-10-26T14:38:02.349Z,18.00
2017-10-26T14:40:28.688Z,18.10
2017-10-26T14:42:54.795Z,18.10
2017-10-26T14:45:20.908Z,18.10
2017-10-26T14:47:47.824Z,17.80
2017-10-26T14:50:19.593Z,17.80
2017-10-26T14:52:45.693Z,17.90
2017-10-26T14:55:12.540Z,18.00
2017-10-26T14:57:39.427Z,17.90
2017-10-26T15:00:05.495Z,17.80
2017-10-26T15:02:31.584Z,17.80
2017-10-26T15:04:57.966Z,17.80
2017-10-26T15:07:24.157Z,17.80
2017-10-26T15:09:50.637Z,17.80
2017-10-26T15:12:16.883Z,17.80
2017-10-26T15:14:43.768Z,17.70
2017-10-26T15:17:09.860Z,17.70
2017-10-26T15:19:36.015Z,17.90
2017-10-26T15:22:02.170Z,17.90
2017-10-26T15:24:28.989Z,17.70
2017-10-26T15:26:55.152Z,17.70
2017-10-26T15:29:21.362Z,17.60
2017-10-26T15:31:47.489Z,17.70
2017-10-26T15:34:13.699Z,17.60
2017-10-26T15:36:40.621Z,17.70
2017-10-26T15:39:06.714Z,17.60
2017-10-26T15:41:33.568Z,17.60
2017-10-26T15:43:59.656Z,17.60
2017-10-26T15:46:29.595Z,17.60
2017-10-26T15:48:56.416Z,17.50
2017-10-26T15:51:22.508Z,17.50
2017-10-26T15:53:48.600Z,17.50
2017-10-26T15:56:14.697Z,17.50
2017-10-26T15:58:40.799Z,17.50
2017-10-26T16:01:06.911Z,17.40
2017-10-26T16:03:33.013Z,17.30
2017-10-26T16:05:59.127Z,17.30
2017-10-26T16:08:29.513Z,17.20
2017-10-26T16:10:55.640Z,17.10
2017-10-26T16:13:22.492Z,17.00
2017-10-26T16:15:49.346Z,16.90
2017-10-26T16:18:15.692Z,16.90
2017-10-26T16:20:41.921Z,17.00
2017-10-26T16:23:08.072Z,16.90
2017-10-26T16:25:34.176Z,16.80
2017-10-26T16:28:00.323Z,16.90
2017-10-26T16:30:26.410Z,16.90
2017-10-26T16:32:52.598Z,16.80
2017-10-26T16:35:19.449Z,16.60
2017-10-26T16:37:45.636Z,16.60
2017-10-26T16:40:11.790Z,16.60
2017-10-26T16:42:38.090Z,16.70
2017-10-26T16:45:04.971Z,16.70
2017-10-26T16:47:31.197Z,16.70
2017-10-26T16:49:58.180Z,16.60
2017-10-26T16:52:25.092Z,16.70
2017-10-26T16:54:51.245Z,16.60
2017-10-26T16:57:17.375Z,16.60
2017-10-26T16:59:43.493Z,16.60
2017-10-26T17:02:09.627Z,16.50
2017-10-26T17:04:35.766Z,16.80
2017-10-26T17:07:02.209Z,16.50
2017-10-26T17:09:28.355Z,16.50
2017-10-26T17:11:55.207Z,16.60
2017-10-26T17:14:21.356Z,16.60
2017-10-26T17:16:47.467Z,16.70
2017-10-26T17:19:13.804Z,16.50
2017-10-26T17:21:39.905Z,16.40
2017-10-26T17:24:06.055Z,16.40
2017-10-26T17:26:32.179Z,16.30
2017-10-26T17:28:58.312Z,16.30
2017-10-26T17:31:24.453Z,16.30
2017-10-26T17:33:50.582Z,16.30
2017-10-26T17:36:16.728Z,16.30
2017-10-26T17:38:42.849Z,16.30
2017-10-26T17:41:09.713Z,16.30
2017-10-26T17:43:36.573Z,16.20
2017-10-26T17:46:03.447Z,16.20
2017-10-26T17:48:30.321Z,16.20
2017-10-26T17:50:56.454Z,16.20
2017-10-26T17:53:23.357Z,16.10
2017-10-26T17:55:49.453Z,16.10
2017-10-26T17:58:16.373Z,16.10
2017-10-26T18:00:42.516Z,16.00
2017-10-26T18:03:08.756Z,15.90
2017-10-26T18:05:34.842Z,15.90
2017-10-26T18:08:01.142Z,15.90
2017-10-26T18:10:28.543Z,15.90
2017-10-26T18:12:56.414Z,16.00
2017-10-26T18:15:22.593Z,16.00
2017-10-26T18:17:50.050Z,15.90
2017-10-26T18:20:16.192Z,16.10
2017-10-26T18:22:42.292Z,16.10
2017-10-26T18:25:08.413Z,16.30
2017-10-26T18:27:34.517Z,16.20
2017-10-26T18:30:01.374Z,16.20
2017-10-26T18:32:28.250Z,16.20
2017-10-26T18:34:54.446Z,16.20
2017-10-26T18:37:21.539Z,16.30
2017-10-26T18:39:48.399Z,16.30
2017-10-26T18:42:14.489Z,16.30
2017-10-26T18:44:40.586Z,16.20
2017-10-26T18:47:06.689Z,16.20
2017-10-26T18:49:32.809Z,16.00
2017-10-26T18:51:59.848Z,16.20
2017-10-26T18:54:25.933Z,16.10
2017-10-26T18:56:56.332Z,15.90
2017-10-26T18:59:22.427Z,15.90
2017-10-26T19:01:54.244Z,15.90
2017-10-26T19:04:20.342Z,15.90
2017-10-26T19:06:46.590Z,16.00
2017-10-26T19:09:12.816Z,15.90
2017-10-26T19:11:39.908Z,15.80
2017-10-26T19:14:06.033Z,15.80
2017-10-26T19:16:32.156Z,15.80
2017-10-26T19:18:59.024Z,15.90
2017-10-26T19:21:25.933Z,16.00
2017-10-26T19:23:52.049Z,16.00
2017-10-26T19:26:18.271Z,16.10
2017-10-26T19:28:44.389Z,15.90
2017-10-26T19:31:10.537Z,15.90
2017-10-26T19:33:38.651Z,15.90
2017-10-26T19:36:05.681Z,15.90
2017-10-26T19:41:02.913Z,15.80
2017-10-26T19:43:29.093Z,15.80
2017-10-26T19:45:55.198Z,15.80
2017-10-26T19:48:21.366Z,15.90
2017-10-26T19:50:47.628Z,16.00
2017-10-26T19:53:13.770Z,15.90
2017-10-26T19:55:39.889Z,15.90
2017-10-26T19:58:06.025Z,15.90
2017-10-26T20:00:32.989Z,15.80
2017-10-26T20:02:59.140Z,15.80
2017-10-26T20:05:25.986Z,15.70
2017-10-26T20:07:52.132Z,15.70
2017-10-26T20:10:18.364Z,15.70
2017-10-26T20:12:44.477Z,15.70
2017-10-26T20:15:10.609Z,15.70
2017-10-26T20:17:37.454Z,15.50
2017-10-26T20:20:04.105Z,15.50
2017-10-26T20:22:31.027Z,15.40
2017-10-26T20:24:57.174Z,15.40
2017-10-26T20:27:23.305Z,15.40
2017-10-26T20:29:50.152Z,15.50
2017-10-26T20:32:17.029Z,15.40
2017-10-26T20:34:43.912Z,15.30
2017-10-26T20:37:10.075Z,15.30
2017-10-26T20:39:36.208Z,15.40
2017-10-26T20:42:03.604Z,15.40
2017-10-26T20:44:29.768Z,15.40
2017-10-26T20:46:55.899Z,15.50
2017-10-26T20:49:29.211Z,15.40
2017-10-26T20:52:01.630Z,15.30
2017-10-26T20:54:33.829Z,15.30
2017-10-26T20:57:06.193Z,15.20
2017-10-26T20:59:38.582Z,15.10
2017-10-26T21:02:10.814Z,15.10
2017-10-26T21:04:43.974Z,15.30
2017-10-26T21:07:16.305Z,15.30
2017-10-26T21:09:58.007Z,15.20
2017-10-26T21:12:37.088Z,15.20
2017-10-26T21:15:05.571Z,15.20
2017-10-26T21:17:31.803Z,15.10
2017-10-26T21:19:57.924Z,15.00
2017-10-26T21:22:24.788Z,15.10
2017-10-26T21:24:51.144Z,15.00
2017-10-26T21:27:27.048Z,15.00
2017-10-26T21:29:58.039Z,15.00
2017-10-26T21:32:29.034Z,14.90
2017-10-26T21:34:55.484Z,14.90
2017-10-26T21:37:21.900Z,14.90
2017-10-26T21:39:48.277Z,14.80
2017-10-26T21:42:14.814Z,14.70
2017-10-26T21:44:41.907Z,14.90
2017-10-26T21:47:08.238Z,14.90
2017-10-26T21:49:34.585Z,14.80
2017-10-26T21:52:00.884Z,14.70
2017-10-26T21:54:27.237Z,14.70
2017-10-26T21:56:53.547Z,14.70
2017-10-26T21:59:19.852Z,14.60
2017-10-26T22:01:46.237Z,14.70
2017-10-26T22:04:12.561Z,14.30
2017-10-26T22:06:39.689Z,14.70
2017-10-26T22:09:06.010Z,14.70
2017-10-26T22:11:32.354Z,14.60
2017-10-26T22:13:58.670Z,14.50
2017-10-26T22:16:27.423Z,14.50
2017-10-26T22:18:53.755Z,14.40
2017-10-26T22:21:24.476Z,14.70
2017-10-26T22:23:50.784Z,14.50
2017-10-26T22:26:17.086Z,14.60
2017-10-26T22:28:43.432Z,14.50
2017-10-26T22:31:09.750Z,14.50
2017-10-26T22:33:36.085Z,14.50
2017-10-26T22:36:02.438Z,15.20
2017-10-26T22:38:30.944Z,14.60
2017-10-26T22:40:58.484Z,14.50
2017-10-26T22:43:24.914Z,14.70
2017-10-26T22:45:51.294Z,14.50
2017-10-26T22:48:17.619Z,14.30
2017-10-26T22:50:43.945Z,14.70
2017-10-26T22:53:11.021Z,14.30
2017-10-26T22:55:39.040Z,14.30
2017-10-26T22:58:05.386Z,14.30
2017-10-26T23:00:31.757Z,14.50
2017-10-26T23:03:00.969Z,14.60
2017-10-26T23:05:27.365Z,14.50
2017-10-26T23:07:53.681Z,14.50
2017-10-26T23:10:20.141Z,14.40
2017-10-26T23:12:46.453Z,14.40
2017-10-26T23:15:12.777Z,14.30
2017-10-26T23:17:40.004Z,14.40
2017-10-26T23:20:06.361Z,14.40
2017-10-26T23:22:32.714Z,14.40
2017-10-26T23:24:59.024Z,14.50
2017-10-26T23:27:25.427Z,14.50
2017-10-26T23:29:51.754Z,14.50
2017-10-26T23:32:18.066Z,14.40
2017-10-26T23:34:44.396Z,14.50
2017-10-26T23:37:11.443Z,14.40
2017-10-26T23:39:37.760Z,14.40
2017-10-26T23:42:04.175Z,14.40
2017-10-26T23:44:30.561Z,14.20
2017-10-26T23:46:56.873Z,14.30
2017-10-26T23:49:24.051Z,14.30
2017-10-26T23:51:51.299Z,14.20
2017-10-26T23:54:21.978Z,14.30
2017-10-26T23:56:48.304Z,14.20
2017-10-26T23:59:17.539Z,14.30
